KFDK/FDK METAR and TAF weather

Enter ICAO airport designator
Station Type Date Time Source
KFDK METAR 2019/02/23 00:47 UTC NOAA

KFDK 230047Z 00000KT 10SM SKC 05/M01 A3047


Station Type Date Time Source
KFDK Decoded METAR 2019/02/23 00:47 UTC NOAA

Frederick, Frederick Municipal Airport, MD, United States (KFDK) 39-25-03N 077-22-28W
Feb 22, 2019 - 07:47 PM EST / 2019.02.23 0047 UTC
Wind: Calm:0
Visibility: 10 mile(s):0
Sky conditions: clear
Temperature: 41 F (5 C)
Dew Point: 30 F (-1 C)
Relative Humidity: 65%
Pressure (altimeter): 30.47 in. Hg (1031 hPa)
ob: KFDK 230047Z 00000KT 10SM SKC 05/M01 A3047
cycle: 1

Station Type Date Time Source
KFDK TAF UTC NOAA

Error!


Example: see airport list